sensor_id;sensor_type;location;lat;lon;timestamp;pressure;altitude;pressure_sealevel;temperature;humidity
52651;BME280;38537;47.226;39.702;2023-01-31T00:01:44;100060.03;;;7.45;60.60
52651;BME280;38537;47.226;39.702;2023-01-31T00:04:11;100059.50;;;7.43;60.38
52651;BME280;38537;47.226;39.702;2023-01-31T00:06:43;100040.63;;;7.16;60.76
52651;BME280;38537;47.226;39.702;2023-01-31T00:09:17;100049.03;;;7.11;60.76
52651;BME280;38537;47.226;39.702;2023-01-31T00:11:44;100062.13;;;7.06;61.42
52651;BME280;38537;47.226;39.702;2023-01-31T00:14:18;100039.84;;;6.87;61.68
52651;BME280;38537;47.226;39.702;2023-01-31T00:16:46;100049.31;;;7.10;61.21
52651;BME280;38537;47.226;39.702;2023-01-31T00:19:14;100050.41;;;7.14;60.66
52651;BME280;38537;47.226;39.702;2023-01-31T00:21:41;100048.81;;;7.03;60.88
52651;BME280;38537;47.226;39.702;2023-01-31T00:24:13;100053.25;;;6.75;61.38
52651;BME280;38537;47.226;39.702;2023-01-31T00:26:40;100062.78;;;6.64;61.95
52651;BME280;38537;47.226;39.702;2023-01-31T00:29:08;100044.06;;;6.45;61.99
52651;BME280;38537;47.226;39.702;2023-01-31T00:31:35;100055.94;;;6.51;62.00
52651;BME280;38537;47.226;39.702;2023-01-31T00:34:03;100063.91;;;6.24;62.67
52651;BME280;38537;47.226;39.702;2023-01-31T00:36:32;100054.59;;;6.04;63.18
52651;BME280;38537;47.226;39.702;2023-01-31T00:39:02;100046.94;;;5.81;63.54
52651;BME280;38537;47.226;39.702;2023-01-31T00:41:32;100059.44;;;5.73;63.73
52651;BME280;38537;47.226;39.702;2023-01-31T00:43:59;100047.59;;;5.63;64.27
52651;BME280;38537;47.226;39.702;2023-01-31T00:46:29;100037.63;;;5.57;64.28
52651;BME280;38537;47.226;39.702;2023-01-31T00:48:56;100043.75;;;5.48;64.16
52651;BME280;38537;47.226;39.702;2023-01-31T00:51:25;100060.91;;;5.56;64.49
52651;BME280;38537;47.226;39.702;2023-01-31T00:53:52;100044.84;;;5.47;64.82
52651;BME280;38537;47.226;39.702;2023-01-31T00:56:21;100057.66;;;5.38;65.00
52651;BME280;38537;47.226;39.702;2023-01-31T00:58:49;100046.31;;;5.30;64.66
52651;BME280;38537;47.226;39.702;2023-01-31T01:01:18;100048.53;;;5.33;65.07
52651;BME280;38537;47.226;39.702;2023-01-31T01:03:49;100038.88;;;5.15;65.46
52651;BME280;38537;47.226;39.702;2023-01-31T01:06:17;100032.84;;;4.98;65.79
52651;BME280;38537;47.226;39.702;2023-01-31T01:08:44;100019.84;;;4.88;66.02
52651;BME280;38537;47.226;39.702;2023-01-31T01:11:24;100041.94;;;4.98;66.85
52651;BME280;38537;47.226;39.702;2023-01-31T01:13:51;100024.81;;;4.91;66.39
52651;BME280;38537;47.226;39.702;2023-01-31T01:16:22;100044.72;;;5.03;66.06
52651;BME280;38537;47.226;39.702;2023-01-31T01:18:51;100030.63;;;4.95;65.95
52651;BME280;38537;47.226;39.702;2023-01-31T01:21:24;100035.06;;;4.91;66.80
52651;BME280;38537;47.226;39.702;2023-01-31T01:23:55;100045.28;;;4.90;66.38
52651;BME280;38537;47.226;39.702;2023-01-31T01:26:28;100040.31;;;4.77;67.42
52651;BME280;38537;47.226;39.702;2023-01-31T01:28:57;100028.44;;;4.56;67.01
52651;BME280;38537;47.226;39.702;2023-01-31T01:31:25;100026.25;;;4.48;67.58
52651;BME280;38537;47.226;39.702;2023-01-31T01:34:10;100041.44;;;4.56;68.50
52651;BME280;38537;47.226;39.702;2023-01-31T01:36:39;100038.97;;;4.49;68.18
52651;BME280;38537;47.226;39.702;2023-01-31T01:39:10;100046.16;;;4.45;68.67
52651;BME280;38537;47.226;39.702;2023-01-31T01:41:39;100044.47;;;4.39;67.74
52651;BME280;38537;47.226;39.702;2023-01-31T01:47:19;100046.13;;;4.35;68.55
52651;BME280;38537;47.226;39.702;2023-01-31T01:50:15;100035.09;;;4.30;69.27
52651;BME280;38537;47.226;39.702;2023-01-31T01:52:48;100038.13;;;4.23;68.59
52651;BME280;38537;47.226;39.702;2023-01-31T01:58:02;100017.09;;;4.07;69.22
52651;BME280;38537;47.226;39.702;2023-01-31T02:00:30;100039.47;;;4.16;68.71
52651;BME280;38537;47.226;39.702;2023-01-31T02:03:00;100035.06;;;4.09;69.06
52651;BME280;38537;47.226;39.702;2023-01-31T02:05:32;100048.91;;;4.25;69.41
52651;BME280;38537;47.226;39.702;2023-01-31T02:08:01;100047.78;;;4.26;68.91
52651;BME280;38537;47.226;39.702;2023-01-31T02:10:43;100038.13;;;4.28;69.94
52651;BME280;38537;47.226;39.702;2023-01-31T02:13:13;100054.72;;;4.28;69.15
52651;BME280;38537;47.226;39.702;2023-01-31T02:15:44;100051.09;;;4.23;69.45
52651;BME280;38537;47.226;39.702;2023-01-31T02:18:11;100029.53;;;4.04;69.11
52651;BME280;38537;47.226;39.702;2023-01-31T02:23:39;100049.44;;;4.27;70.04
52651;BME280;38537;47.226;39.702;2023-01-31T02:31:46;100047.22;;;4.24;70.17
52651;BME280;38537;47.226;39.702;2023-01-31T02:40:03;100051.13;;;4.28;70.48
52651;BME280;38537;47.226;39.702;2023-01-31T02:53:48;100049.97;;;4.08;69.84
52651;BME280;38537;47.226;39.702;2023-01-31T02:56:29;100063.25;;;4.17;70.21
52651;BME280;38537;47.226;39.702;2023-01-31T03:01:40;100048.88;;;4.09;70.16
52651;BME280;38537;47.226;39.702;2023-01-31T03:04:11;100053.03;;;4.27;69.96
52651;BME280;38537;47.226;39.702;2023-01-31T03:06:47;100063.81;;;4.39;69.98
52651;BME280;38537;47.226;39.702;2023-01-31T03:09:33;100060.25;;;4.43;70.09
52651;BME280;38537;47.226;39.702;2023-01-31T03:18:18;100025.41;;;4.27;69.59
52651;BME280;38537;47.226;39.702;2023-01-31T03:20:53;100050.28;;;4.32;69.53
52651;BME280;38537;47.226;39.702;2023-01-31T03:23:26;100056.09;;;4.31;69.57
52651;BME280;38537;47.226;39.702;2023-01-31T03:25:57;100054.44;;;4.30;70.09
52651;BME280;38537;47.226;39.702;2023-01-31T03:28:31;100046.13;;;4.25;70.24
52651;BME280;38537;47.226;39.702;2023-01-31T03:33:36;100032.56;;;4.18;69.87
52651;BME280;38537;47.226;39.702;2023-01-31T03:39:09;100030.09;;;4.37;70.36
52651;BME280;38537;47.226;39.702;2023-01-31T03:41:59;100046.16;;;4.45;69.79
52651;BME280;38537;47.226;39.702;2023-01-31T03:44:51;100035.94;;;4.51;70.39
52651;BME280;38537;47.226;39.702;2023-01-31T03:47:43;100017.41;;;4.46;69.89
52651;BME280;38537;47.226;39.702;2023-01-31T03:50:25;100035.94;;;4.51;69.45
52651;BME280;38537;47.226;39.702;2023-01-31T03:53:01;100018.50;;;4.45;70.13
52651;BME280;38537;47.226;39.702;2023-01-31T03:55:55;100037.84;;;4.55;70.13
52651;BME280;38537;47.226;39.702;2023-01-31T03:58:27;100038.41;;;4.47;69.94
52651;BME280;38537;47.226;39.702;2023-01-31T04:00:58;100034.53;;;4.43;69.72
52651;BME280;38537;47.226;39.702;2023-01-31T04:03:31;100029.00;;;4.43;69.33
52651;BME280;38537;47.226;39.702;2023-01-31T04:06:00;100039.50;;;4.46;69.25
52651;BME280;38537;47.226;39.702;2023-01-31T04:08:30;100039.50;;;4.41;69.47
52651;BME280;38537;47.226;39.702;2023-01-31T04:11:03;100038.13;;;4.54;69.60
52651;BME280;38537;47.226;39.702;2023-01-31T04:13:31;100031.78;;;4.53;69.25
52651;BME280;38537;47.226;39.702;2023-01-31T04:16:00;100019.03;;;4.42;69.24
52651;BME280;38537;47.226;39.702;2023-01-31T04:18:28;100043.38;;;4.55;68.90
52651;BME280;38537;47.226;39.702;2023-01-31T04:20:55;100040.91;;;4.54;69.57
52651;BME280;38537;47.226;39.702;2023-01-31T04:23:22;100026.50;;;4.41;69.13
52651;BME280;38537;47.226;39.702;2023-01-31T04:25:53;100029.00;;;4.43;69.57
52651;BME280;38537;47.226;39.702;2023-01-31T04:28:21;100022.09;;;4.40;69.54
52651;BME280;38537;47.226;39.702;2023-01-31T04:30:56;100021.81;;;4.42;69.77
52651;BME280;38537;47.226;39.702;2023-01-31T04:33:23;100020.16;;;4.41;69.07
52651;BME280;38537;47.226;39.702;2023-01-31T04:35:51;100030.38;;;4.40;69.25
52651;BME280;38537;47.226;39.702;2023-01-31T04:38:18;100021.00;;;4.31;68.71
52651;BME280;38537;47.226;39.702;2023-01-31T04:40:45;100051.13;;;4.43;69.71
52651;BME280;38537;47.226;39.702;2023-01-31T04:43:13;100026.78;;;4.25;68.96
52651;BME280;38537;47.226;39.702;2023-01-31T04:45:40;100029.00;;;4.38;68.93
52651;BME280;38537;47.226;39.702;2023-01-31T04:48:09;100034.53;;;4.43;68.82
52651;BME280;38537;47.226;39.702;2023-01-31T04:50:36;100037.84;;;4.35;69.01
52651;BME280;38537;47.226;39.702;2023-01-31T04:53:04;100034.53;;;4.23;68.39
52651;BME280;38537;47.226;39.702;2023-01-31T04:55:33;100040.63;;;4.30;69.40
52651;BME280;38537;47.226;39.702;2023-01-31T04:58:01;100041.16;;;4.32;68.92
52651;BME280;38537;47.226;39.702;2023-01-31T05:00:31;100073.50;;;4.46;69.35
52651;BME280;38537;47.226;39.702;2023-01-31T05:02:59;100038.97;;;4.29;69.08
52651;BME280;38537;47.226;39.702;2023-01-31T05:05:27;100067.69;;;4.43;69.29
52651;BME280;38537;47.226;39.702;2023-01-31T05:07:55;100045.03;;;4.31;68.52
52651;BME280;38537;47.226;39.702;2023-01-31T05:10:22;100046.13;;;4.25;68.67
52651;BME280;38537;47.226;39.702;2023-01-31T05:12:50;100031.19;;;4.10;69.61
52651;BME280;38537;47.226;39.702;2023-01-31T05:15:19;100061.34;;;4.27;69.48
52651;BME280;38537;47.226;39.702;2023-01-31T05:17:52;100081.53;;;4.43;69.41
52651;BME280;38537;47.226;39.702;2023-01-31T05:20:19;100061.63;;;4.31;69.29
52651;BME280;38537;47.226;39.702;2023-01-31T05:22:52;100064.94;;;4.38;68.97
52651;BME280;38537;47.226;39.702;2023-01-31T05:25:19;100038.66;;;4.35;69.10
52651;BME280;38537;47.226;39.702;2023-01-31T05:27:47;100025.97;;;4.29;68.96
52651;BME280;38537;47.226;39.702;2023-01-31T05:30:14;100059.41;;;4.48;68.79
52651;BME280;38537;47.226;39.702;2023-01-31T05:32:51;100072.13;;;4.49;68.84
52651;BME280;38537;47.226;39.702;2023-01-31T05:35:19;100081.53;;;4.48;69.12
52651;BME280;38537;47.226;39.702;2023-01-31T05:37:47;100059.97;;;4.30;68.88
52651;BME280;38537;47.226;39.702;2023-01-31T05:40:15;100086.78;;;4.44;68.53
52651;BME280;38537;47.226;39.702;2023-01-31T05:42:44;100070.19;;;4.39;68.50
52651;BME280;38537;47.226;39.702;2023-01-31T05:45:13;100073.78;;;4.40;69.03
52651;BME280;38537;47.226;39.702;2023-01-31T05:47:45;100083.72;;;4.41;69.04
52651;BME280;38537;47.226;39.702;2023-01-31T05:50:12;100080.69;;;4.37;68.49
52651;BME280;38537;47.226;39.702;2023-01-31T05:52:40;100072.66;;;4.26;69.04
52651;BME280;38537;47.226;39.702;2023-01-31T05:55:07;100046.66;;;4.06;69.54
52651;BME280;38537;47.226;39.702;2023-01-31T05:57:34;100077.34;;;4.25;69.62
52651;BME280;38537;47.226;39.702;2023-01-31T06:00:05;100083.13;;;4.19;69.51
52651;BME280;38537;47.226;39.702;2023-01-31T06:02:37;100075.41;;;4.16;69.89
52651;BME280;38537;47.226;39.702;2023-01-31T06:05:05;100057.72;;;4.06;70.15
52651;BME280;38537;47.226;39.702;2023-01-31T06:07:32;100078.72;;;4.23;70.25
52651;BME280;38537;47.226;39.702;2023-01-31T06:10:00;100079.56;;;4.23;70.68
52651;BME280;38537;47.226;39.702;2023-01-31T06:12:29;100063.25;;;4.17;70.46
52651;BME280;38537;47.226;39.702;2023-01-31T06:14:57;100067.66;;;4.18;70.18
52651;BME280;38537;47.226;39.702;2023-01-31T06:17:25;100062.41;;;4.16;70.61
52651;BME280;38537;47.226;39.702;2023-01-31T06:19:55;100084.00;;;4.34;70.39
52651;BME280;38537;47.226;39.702;2023-01-31T06:22:23;100083.75;;;4.46;69.97
52651;BME280;38537;47.226;39.702;2023-01-31T06:24:51;100072.97;;;4.44;69.87
52651;BME280;38537;47.226;39.702;2023-01-31T06:27:18;100059.69;;;4.62;69.63
52651;BME280;38537;47.226;39.702;2023-01-31T06:29:46;100060.53;;;4.67;69.39
52651;BME280;38537;47.226;39.702;2023-01-31T06:32:13;100086.50;;;4.81;69.86
52651;BME280;38537;47.226;39.702;2023-01-31T06:34:40;100073.22;;;4.78;69.33
52651;BME280;38537;47.226;39.702;2023-01-31T06:37:08;100089.84;;;4.89;68.71
52651;BME280;38537;47.226;39.702;2023-01-31T06:39:36;100078.22;;;4.81;68.65
52651;BME280;38537;47.226;39.702;2023-01-31T06:42:04;100092.56;;;5.04;68.64
52651;BME280;38537;47.226;39.702;2023-01-31T06:44:31;100079.28;;;5.11;69.21
52651;BME280;38537;47.226;39.702;2023-01-31T06:47:03;100069.59;;;5.08;68.67
52651;BME280;38537;47.226;39.702;2023-01-31T06:49:33;100064.06;;;4.98;68.46
52651;BME280;38537;47.226;39.702;2023-01-31T06:52:00;100057.19;;;4.86;68.46
52651;BME280;38537;47.226;39.702;2023-01-31T06:54:27;100064.38;;;4.81;68.92
52651;BME280;38537;47.226;39.702;2023-01-31T06:56:54;100062.19;;;4.73;69.21
52651;BME280;38537;47.226;39.702;2023-01-31T06:59:22;100052.22;;;4.67;69.19
52651;BME280;38537;47.226;39.702;2023-01-31T07:01:49;100055.28;;;4.66;69.57
52651;BME280;38537;47.226;39.702;2023-01-31T07:04:16;100032.31;;;4.45;70.24
52651;BME280;38537;47.226;39.702;2023-01-31T07:06:43;100039.50;;;4.46;69.87
52651;BME280;38537;47.226;39.702;2023-01-31T07:09:10;100061.34;;;4.63;70.00
52651;BME280;38537;47.226;39.702;2023-01-31T07:11:38;100046.97;;;4.56;70.60
52651;BME280;38537;47.226;39.702;2023-01-31T07:14:05;100058.31;;;4.64;70.83
52651;BME280;38537;47.226;39.702;2023-01-31T07:16:32;100039.53;;;4.51;70.97
52651;BME280;38537;47.226;39.702;2023-01-31T07:18:59;100050.00;;;4.59;71.08
52651;BME280;38537;47.226;39.702;2023-01-31T07:21:27;100038.94;;;4.59;70.51
52651;BME280;38537;47.226;39.702;2023-01-31T07:23:56;100028.75;;;4.55;71.03
52651;BME280;38537;47.226;39.702;2023-01-31T07:26:23;100043.94;;;4.67;70.98
52651;BME280;38537;47.226;39.702;2023-01-31T07:28:51;100064.09;;;4.78;71.59
52651;BME280;38537;47.226;39.702;2023-01-31T07:31:18;100075.44;;;4.81;71.40
52651;BME280;38537;47.226;39.702;2023-01-31T07:33:47;100047.81;;;4.71;71.25
52651;BME280;38537;47.226;39.702;2023-01-31T07:36:15;100061.59;;;4.76;70.85
52651;BME280;38537;47.226;39.702;2023-01-31T07:38:45;100054.97;;;4.77;71.14
52651;BME280;38537;47.226;39.702;2023-01-31T07:41:12;100039.78;;;4.60;70.67
52651;BME280;38537;47.226;39.702;2023-01-31T07:43:40;100075.44;;;4.87;70.76
52651;BME280;38537;47.226;39.702;2023-01-31T07:46:08;100061.34;;;4.83;71.03
52651;BME280;38537;47.226;39.702;2023-01-31T07:48:38;100067.69;;;4.89;70.94
52651;BME280;38537;47.226;39.702;2023-01-31T07:51:06;100044.50;;;4.69;71.22
52651;BME280;38537;47.226;39.702;2023-01-31T07:53:35;100067.16;;;4.92;70.99
52651;BME280;38537;47.226;39.702;2023-01-31T07:56:12;100057.19;;;4.86;71.50
52651;BME280;38537;47.226;39.702;2023-01-31T07:58:41;100046.69;;;4.88;71.40
52651;BME280;38537;47.226;39.702;2023-01-31T08:01:24;100046.66;;;4.77;71.49
52651;BME280;38537;47.226;39.702;2023-01-31T08:04:12;100058.84;;;4.92;71.42
52651;BME280;38537;47.226;39.702;2023-01-31T08:06:52;100070.44;;;4.99;71.31
52651;BME280;38537;47.226;39.702;2023-01-31T08:09:22;100059.69;;;4.97;71.35
52651;BME280;38537;47.226;39.702;2023-01-31T08:11:50;100047.50;;;4.93;71.30
52651;BME280;38537;47.226;39.702;2023-01-31T08:14:18;100064.91;;;5.09;71.42
52651;BME280;38537;47.226;39.702;2023-01-31T08:16:51;100056.06;;;5.07;71.64
52651;BME280;38537;47.226;39.702;2023-01-31T08:19:19;100059.38;;;5.19;71.71
52651;BME280;38537;47.226;39.702;2023-01-31T08:21:47;100040.28;;;5.07;70.74
52651;BME280;38537;47.226;39.702;2023-01-31T08:24:15;100049.91;;;5.20;71.50
52651;BME280;38537;47.226;39.702;2023-01-31T08:26:42;100051.06;;;5.19;70.88
52651;BME280;38537;47.226;39.702;2023-01-31T08:29:13;100035.00;;;5.11;71.10
52651;BME280;38537;47.226;39.702;2023-01-31T08:31:40;100027.25;;;5.13;70.75
52651;BME280;38537;47.226;39.702;2023-01-31T08:34:08;100041.03;;;5.38;70.76
52651;BME280;38537;47.226;39.702;2023-01-31T08:36:37;100025.53;;;5.32;71.11
52651;BME280;38537;47.226;39.702;2023-01-31T08:39:04;100022.22;;;5.30;70.55
52651;BME280;38537;47.226;39.702;2023-01-31T08:41:32;100047.63;;;5.47;71.03
52651;BME280;38537;47.226;39.702;2023-01-31T08:44:00;100035.16;;;5.50;70.79
52651;BME280;38537;47.226;39.702;2023-01-31T08:46:33;100027.66;;;5.56;70.78
52651;BME280;38537;47.226;39.702;2023-01-31T08:49:02;100028.69;;;5.70;70.37
52651;BME280;38537;47.226;39.702;2023-01-31T08:51:30;100025.09;;;5.69;70.28
52651;BME280;38537;47.226;39.702;2023-01-31T08:53:58;100022.06;;;5.66;70.00
52651;BME280;38537;47.226;39.702;2023-01-31T08:56:25;100037.81;;;5.75;69.64
52651;BME280;38537;47.226;39.702;2023-01-31T08:58:54;100033.13;;;5.71;69.79
52651;BME280;38537;47.226;39.702;2023-01-31T09:01:22;100032.59;;;5.69;70.32
52651;BME280;38537;47.226;39.702;2023-01-31T09:03:50;100017.16;;;5.53;70.29
52651;BME280;38537;47.226;39.702;2023-01-31T09:06:24;100036.19;;;5.64;70.63
52651;BME280;38537;47.226;39.702;2023-01-31T09:08:57;100024.28;;;5.69;70.54
52651;BME280;38537;47.226;39.702;2023-01-31T09:11:26;100028.88;;;5.99;70.43
52651;BME280;38537;47.226;39.702;2023-01-31T09:13:55;100023.00;;;6.05;69.44
52651;BME280;38537;47.226;39.702;2023-01-31T09:16:23;100009.47;;;5.99;69.42
52651;BME280;38537;47.226;39.702;2023-01-31T09:18:51;100012.53;;;5.92;68.93
52651;BME280;38537;47.226;39.702;2023-01-31T09:21:20;100006.69;;;5.99;69.12
52651;BME280;38537;47.226;39.702;2023-01-31T09:23:52;100007.66;;;6.18;69.78
52651;BME280;38537;47.226;39.702;2023-01-31T09:26:19;100010.56;;;6.37;69.17
52651;BME280;38537;47.226;39.702;2023-01-31T09:28:47;99990.91;;;6.33;69.21
52651;BME280;38537;47.226;39.702;2023-01-31T09:31:19;99994.97;;;6.46;68.26
52651;BME280;38537;47.226;39.702;2023-01-31T09:33:47;99994.34;;;6.54;68.03
52651;BME280;38537;47.226;39.702;2023-01-31T09:36:19;100005.59;;;6.68;68.44
52651;BME280;38537;47.226;39.702;2023-01-31T09:38:47;99976.50;;;6.65;68.00
52651;BME280;38537;47.226;39.702;2023-01-31T09:44:08;99984.63;;;6.85;67.07
52651;BME280;38537;47.226;39.702;2023-01-31T09:46:44;99984.09;;;6.83;67.53
52651;BME280;38537;47.226;39.702;2023-01-31T09:49:19;99996.72;;;6.95;67.21
52651;BME280;38537;47.226;39.702;2023-01-31T09:51:53;99985.41;;;6.91;66.81
52651;BME280;38537;47.226;39.702;2023-01-31T09:54:34;99987.28;;;6.96;66.57
52651;BME280;38537;47.226;39.702;2023-01-31T10:06:29;99965.56;;;7.03;67.13
52651;BME280;38537;47.226;39.702;2023-01-31T10:11:40;99974.81;;;7.17;66.61
52651;BME280;38537;47.226;39.702;2023-01-31T10:17:02;99963.78;;;7.12;66.78
52651;BME280;38537;47.226;39.702;2023-01-31T10:20:07;99960.59;;;7.23;66.61
52651;BME280;38537;47.226;39.702;2023-01-31T10:22:37;99949.78;;;7.22;66.40
52651;BME280;38537;47.226;39.702;2023-01-31T10:25:26;99952.75;;;7.31;66.51
52651;BME280;38537;47.226;39.702;2023-01-31T10:28:21;99954.78;;;7.44;66.11
52651;BME280;38537;47.226;39.702;2023-01-31T10:34:14;99955.09;;;7.80;65.68
52651;BME280;38537;47.226;39.702;2023-01-31T10:39:54;99954.72;;;7.68;64.81
52651;BME280;38537;47.226;39.702;2023-01-31T10:42:37;99961.66;;;7.70;65.21
52651;BME280;38537;47.226;39.702;2023-01-31T10:45:14;99956.50;;;7.58;65.18
52651;BME280;38537;47.226;39.702;2023-01-31T10:47:54;99941.66;;;7.49;65.70
52651;BME280;38537;47.226;39.702;2023-01-31T10:50:48;99948.50;;;7.57;65.97
52651;BME280;38537;47.226;39.702;2023-01-31T10:56:09;99947.44;;;7.53;65.87
52651;BME280;38537;47.226;39.702;2023-01-31T10:58:38;99954.94;;;7.52;65.88
52651;BME280;38537;47.226;39.702;2023-01-31T11:01:06;99957.66;;;7.57;65.92
52651;BME280;38537;47.226;39.702;2023-01-31T11:03:47;99934.09;;;7.55;65.79
52651;BME280;38537;47.226;39.702;2023-01-31T11:06:16;99940.38;;;7.61;65.23
52651;BME280;38537;47.226;39.702;2023-01-31T11:08:54;99911.94;;;7.50;65.77
52651;BME280;38537;47.226;39.702;2023-01-31T11:11:25;99942.25;;;7.65;65.61
52651;BME280;38537;47.226;39.702;2023-01-31T11:13:57;99945.41;;;7.58;65.77
52651;BME280;38537;47.226;39.702;2023-01-31T11:16:29;99920.03;;;7.46;65.78
52651;BME280;38537;47.226;39.702;2023-01-31T11:19:00;99928.00;;;7.53;65.88
52651;BME280;38537;47.226;39.702;2023-01-31T11:21:31;99926.34;;;7.52;65.72
52651;BME280;38537;47.226;39.702;2023-01-31T11:24:07;99947.00;;;7.65;66.21
52651;BME280;38537;47.226;39.702;2023-01-31T11:26:50;99949.94;;;7.54;65.93
52651;BME280;38537;47.226;39.702;2023-01-31T11:29:27;99935.63;;;7.42;66.35
52651;BME280;38537;47.226;39.702;2023-01-31T11:31:57;99945.63;;;7.43;65.84
52651;BME280;38537;47.226;39.702;2023-01-31T11:34:27;99931.50;;;7.16;65.97
52651;BME280;38537;47.226;39.702;2023-01-31T11:37:14;99942.31;;;7.17;66.72
52651;BME280;38537;47.226;39.702;2023-01-31T11:39:54;99942.72;;;7.11;67.53
52651;BME280;38537;47.226;39.702;2023-01-31T11:42:22;99946.00;;;7.13;67.19
52651;BME280;38537;47.226;39.702;2023-01-31T11:45:11;99948.78;;;7.13;67.71
52651;BME280;38537;47.226;39.702;2023-01-31T11:47:46;99944.41;;;7.07;67.27
52651;BME280;38537;47.226;39.702;2023-01-31T11:50:43;99940.28;;;7.04;68.72
52651;BME280;38537;47.226;39.702;2023-01-31T11:53:28;99941.00;;;6.91;68.66
52651;BME280;38537;47.226;39.702;2023-01-31T11:58:37;99953.03;;;6.81;68.45
52651;BME280;38537;47.226;39.702;2023-01-31T12:01:13;99955.84;;;6.76;68.27
52651;BME280;38537;47.226;39.702;2023-01-31T12:03:58;99957.75;;;6.81;69.09
52651;BME280;38537;47.226;39.702;2023-01-31T12:09:03;99945.44;;;6.63;69.10
52651;BME280;38537;47.226;39.702;2023-01-31T12:11:32;99937.75;;;6.55;69.38
52651;BME280;38537;47.226;39.702;2023-01-31T12:16:34;99951.56;;;6.60;68.67
52651;BME280;38537;47.226;39.702;2023-01-31T12:27:50;99956.09;;;6.51;69.91
52651;BME280;38537;47.226;39.702;2023-01-31T12:36:24;99956.41;;;6.49;70.01
52651;BME280;38537;47.226;39.702;2023-01-31T12:41:36;99966.31;;;6.27;69.79
52651;BME280;38537;47.226;39.702;2023-01-31T12:55:41;99964.69;;;6.21;70.24
52651;BME280;38537;47.226;39.702;2023-01-31T13:01:23;99963.75;;;6.30;71.11
52651;BME280;38537;47.226;39.702;2023-01-31T13:06:52;99953.91;;;6.48;69.95
52651;BME280;38537;47.226;39.702;2023-01-31T13:09:31;99943.41;;;6.45;70.65
52651;BME280;38537;47.226;39.702;2023-01-31T13:14:36;99953.66;;;6.73;70.37
52651;BME280;38537;47.226;39.702;2023-01-31T13:17:07;99941.13;;;6.76;69.74
52651;BME280;38537;47.226;39.702;2023-01-31T13:19:50;99958.47;;;6.92;70.25
52651;BME280;38537;47.226;39.702;2023-01-31T13:22:24;99960.53;;;6.81;69.98
52651;BME280;38537;47.226;39.702;2023-01-31T13:27:37;99956.19;;;6.94;70.66
52651;BME280;38537;47.226;39.702;2023-01-31T13:33:28;99956.81;;;6.91;70.69
52651;BME280;38537;47.226;39.702;2023-01-31T13:36:24;99964.38;;;6.85;71.04
52651;BME280;38537;47.226;39.702;2023-01-31T13:38:54;99961.44;;;6.71;70.40
52651;BME280;38537;47.226;39.702;2023-01-31T13:41:30;99958.66;;;6.71;71.12
52651;BME280;38537;47.226;39.702;2023-01-31T13:43:59;99958.09;;;6.45;70.69
52651;BME280;38537;47.226;39.702;2023-01-31T13:46:38;99955.41;;;6.35;71.80
52651;BME280;38537;47.226;39.702;2023-01-31T13:51:56;99969.16;;;6.16;72.54
52651;BME280;38537;47.226;39.702;2023-01-31T13:54:37;99963.72;;;6.01;72.96
52651;BME280;38537;47.226;39.702;2023-01-31T13:57:06;99965.41;;;5.97;72.57
52651;BME280;38537;47.226;39.702;2023-01-31T13:59:52;99964.69;;;5.76;73.24
52651;BME280;38537;47.226;39.702;2023-01-31T14:02:20;99966.09;;;5.69;73.29
52651;BME280;38537;47.226;39.702;2023-01-31T14:04:47;99954.31;;;5.48;73.39
52651;BME280;38537;47.226;39.702;2023-01-31T14:07:17;99978.66;;;5.51;73.36
52651;BME280;38537;47.226;39.702;2023-01-31T14:12:36;99967.41;;;5.37;74.53
52651;BME280;38537;47.226;39.702;2023-01-31T14:18:08;99962.97;;;5.36;74.84
52651;BME280;38537;47.226;39.702;2023-01-31T14:20:35;99975.13;;;5.40;75.32
52651;BME280;38537;47.226;39.702;2023-01-31T14:23:32;99989.75;;;5.51;77.11
52651;BME280;38537;47.226;39.702;2023-01-31T14:26:33;99986.69;;;5.53;76.64
52651;BME280;38537;47.226;39.702;2023-01-31T14:29:11;99986.97;;;5.51;76.23
52651;BME280;38537;47.226;39.702;2023-01-31T14:31:45;99977.56;;;5.52;76.39
52651;BME280;38537;47.226;39.702;2023-01-31T14:34:25;99988.84;;;5.66;75.92
52651;BME280;38537;47.226;39.702;2023-01-31T14:37:14;100001.53;;;5.72;76.47
52651;BME280;38537;47.226;39.702;2023-01-31T14:47:46;100002.75;;;5.56;75.34
52651;BME280;38537;47.226;39.702;2023-01-31T14:53:07;99982.03;;;5.43;76.58
52651;BME280;38537;47.226;39.702;2023-01-31T14:55:43;100007.94;;;5.67;75.97
52651;BME280;38537;47.226;39.702;2023-01-31T14:58:18;100003.47;;;5.76;76.72
52651;BME280;38537;47.226;39.702;2023-01-31T15:00:53;99992.91;;;5.83;76.20
52651;BME280;38537;47.226;39.702;2023-01-31T15:05:54;100007.47;;;5.50;75.69
52651;BME280;38537;47.226;39.702;2023-01-31T15:10:57;99994.28;;;5.27;76.43
52651;BME280;38537;47.226;39.702;2023-01-31T15:13:52;100020.81;;;5.38;78.00
52651;BME280;38537;47.226;39.702;2023-01-31T15:16:34;100010.66;;;5.18;77.73
52651;BME280;38537;47.226;39.702;2023-01-31T15:19:10;100008.22;;;4.96;77.38
52651;BME280;38537;47.226;39.702;2023-01-31T15:24:28;99996.91;;;4.62;77.70
52651;BME280;38537;47.226;39.702;2023-01-31T15:26:59;100004.66;;;4.55;77.36
52651;BME280;38537;47.226;39.702;2023-01-31T15:30:03;100011.59;;;4.53;78.52
52651;BME280;38537;47.226;39.702;2023-01-31T15:36:34;99997.22;;;4.30;78.08
52651;BME280;38537;47.226;39.702;2023-01-31T15:39:21;100010.47;;;4.38;78.41
52651;BME280;38537;47.226;39.702;2023-01-31T15:41:49;99991.41;;;4.17;77.83
52651;BME280;38537;47.226;39.702;2023-01-31T15:44:24;99990.56;;;4.16;78.14
52651;BME280;38537;47.226;39.702;2023-01-31T15:47:17;99954.94;;;4.04;77.86
52651;BME280;38537;47.226;39.702;2023-01-31T15:49:47;100006.88;;;4.38;77.60
52651;BME280;38537;47.226;39.702;2023-01-31T15:52:21;100000.81;;;4.31;77.71
52651;BME280;38537;47.226;39.702;2023-01-31T15:55:02;99988.66;;;4.27;78.50